Details for EasyJet at EGSS




Go Back


Latest METAR
Local Time

EGSS 241320Z AUTO 10015KT 9999 NCD 06/M05 Q1022

24/02/2018, 13:35:28

Description
Results
EasyJet Logo
Number of Pilots based at EGSS
2 Pilots Based here
Number of EasyJet Flights Departed from EGSS
4 Flights Departed
Number of EasyJet Flights Arrived at EGSS
3 Flights Arrived
Number of EasyJet Schedules Departing from EGSS
99 Schedules
Number of EasyJet Schedules Arriving at EGSS
97 Schedules
Number of EasyJet Schedules Departing from EGSS availible today
26 Schedules Today
Number of EasyJet Schedules Arriving at EGSS availible today
25 Schedules Today
Average Landing Rate at EGSS
-239 fpm
EasyJet Average Landing Rate at EGSS
-311 fpm
Total Fuel Purchased at EGSS by EasyJet
8,521.18 kgs / 18,785.79 lbs

Pilots Based at EGSS


Pilot ID
Pilot Name
Pilot Rank
No. of Flights
No. of Flying Hours
Ian Hart
5
12.5
Joerg Pfeiffer
32
43.15
Content